Hlavní strana
METAR-TAF:

METAR-TAF

Letiště :

Ankara Esenboğa, Turecko

Letiště Ankara-Esenboğa

zeměpisná šířka: 40-07N, zeměpisná délka: 032-59E, výška: 953 m

Aktuální stav počasí

Zpráva byla vytvořena před 44 minutami, v 18:20 UTC
Severoseverovýchodní vítr 13 kt
Teplota 17°C
Vlhkost vzduchu 29%
Tlak 1016 hPa
Viditelnost 10 km a více
Žádná oblačnost pod 1500 m, nevyskytují se cumulonimby.

METAR: LTAC 231820Z 03013KT CAVOK 17/M01 Q1016 BECMG TL1920 VRB02KT

Čas: 22:04 (19:04 UTC)

Předpověď počasí

Zpráva byla vytvořena před 2 hodinami a 24 minutami, v 16:40 UTC
Předpověď platná od 23 v 18 UTC do 24 v 18 UTC
vítr z různých směrů 2 kt
Viditelnost 10 km a více
Žádná oblačnost pod 1500 m, nevyskytují se cumulonimby.
Změna
od 24 v 07 UTC do 24 v 09 UTC
Polojasno ve výšce 4000 ft
Změna
od 24 v 14 UTC do 24 v 16 UTC
Viditelnost 10 km a více
Žádná oblačnost pod 1500 m, nevyskytují se cumulonimby.

TAF: LTAC 231640Z 2318/2418 VRB02KT CAVOK BECMG 2407/2409 SCT040 BECMG 2414/2416 CAVOK

Stav a předpovědi počasí z více než 4 000 letišť (zprávy METAR a TAF).

Červené a žluté tečky na mapě představují dostupné meteorologické stanice.

Když kurzor umístíte na tečku, zobrazí se název stanice.

Pak kliknutím zobrazíte stav a předpověď počasí.

Chcete-li změnit mapu, kliknutím na zelené tlačítko se znaménkem +mapu přiblížíte, kliknutím na zelené tlačítko se znaménkem – mapu oddálíte a kliknutím na zelené šipky přejdete na sousední mapy.


METAR-TAF: